createdAt,value
2023-03-19T00:00:10.188Z,74.00
2023-03-19T00:02:49.899Z,74.15
2023-03-19T00:05:22.577Z,74.28
2023-03-19T00:07:55.503Z,74.11
2023-03-19T00:10:28.263Z,73.88
2023-03-19T00:13:01.074Z,74.11
2023-03-19T00:15:33.926Z,74.08
2023-03-19T00:18:08.776Z,74.04
2023-03-19T00:20:41.837Z,74.47
2023-03-19T00:23:14.557Z,74.25
2023-03-19T00:25:47.249Z,74.39
2023-03-19T00:28:19.954Z,74.27
2023-03-19T00:30:52.834Z,74.37
2023-03-19T00:33:27.576Z,74.66
2023-03-19T00:36:00.910Z,75.04
2023-03-19T00:38:34.340Z,74.73
2023-03-19T00:41:07.511Z,74.71
2023-03-19T00:43:41.236Z,74.91
2023-03-19T00:46:14.677Z,75.27
2023-03-19T00:48:48.844Z,74.95
2023-03-19T00:51:21.633Z,74.86
2023-03-19T00:53:54.686Z,74.91
2023-03-19T00:56:27.533Z,75.56
2023-03-19T00:59:00.329Z,75.94
2023-03-19T01:01:33.074Z,75.80
2023-03-19T01:04:07.566Z,74.79
2023-03-19T01:06:40.296Z,74.65
2023-03-19T01:09:12.977Z,75.08
2023-03-19T01:11:45.869Z,74.14
2023-03-19T01:14:18.637Z,75.17
2023-03-19T01:16:51.332Z,75.12
2023-03-19T01:19:25.505Z,74.38
2023-03-19T01:21:58.366Z,75.21
2023-03-19T01:24:31.285Z,73.96
2023-03-19T01:27:04.039Z,75.20
2023-03-19T01:29:36.898Z,75.31
2023-03-19T01:32:09.721Z,76.56
2023-03-19T01:34:43.756Z,77.17
2023-03-19T01:37:16.543Z,76.48
2023-03-19T01:39:49.467Z,75.47
2023-03-19T01:42:22.259Z,76.11
2023-03-19T01:44:55.279Z,75.75
2023-03-19T01:47:31.590Z,75.50
2023-03-19T01:50:06.349Z,75.69
2023-03-19T01:52:38.980Z,75.46
2023-03-19T01:55:11.999Z,75.21
2023-03-19T01:57:44.779Z,75.42
2023-03-19T02:00:17.773Z,75.05
2023-03-19T02:02:53.843Z,75.28
2023-03-19T02:05:28.474Z,75.28
2023-03-19T02:08:02.457Z,74.51
2023-03-19T02:10:36.090Z,75.00
2023-03-19T02:13:09.113Z,75.18
2023-03-19T02:15:42.134Z,74.50
2023-03-19T02:18:16.112Z,74.44
2023-03-19T02:20:52.786Z,74.42
2023-03-19T02:23:29.310Z,74.45
2023-03-19T02:26:06.302Z,75.27
2023-03-19T02:28:40.847Z,75.71
2023-03-19T02:31:13.861Z,75.02
2023-03-19T02:33:46.756Z,74.87
2023-03-19T02:36:21.016Z,74.76
2023-03-19T02:38:54.717Z,74.97
2023-03-19T02:41:29.763Z,74.29
2023-03-19T02:44:03.740Z,74.00
2023-03-19T02:46:36.702Z,74.01
2023-03-19T02:49:09.428Z,74.47
2023-03-19T02:51:42.252Z,74.41
2023-03-19T02:54:14.902Z,74.45
2023-03-19T02:56:49.208Z,74.43
2023-03-19T02:59:22.048Z,74.43
2023-03-19T03:01:55.126Z,74.24
2023-03-19T03:04:27.808Z,74.33
2023-03-19T03:07:00.949Z,73.83
2023-03-19T03:09:33.666Z,73.96
2023-03-19T03:12:08.466Z,74.27
2023-03-19T03:14:41.920Z,74.25
2023-03-19T03:17:15.574Z,74.22
2023-03-19T03:19:49.023Z,73.80
2023-03-19T03:22:21.725Z,73.85
2023-03-19T03:24:54.415Z,73.94
2023-03-19T03:27:28.581Z,74.14
2023-03-19T03:30:01.445Z,74.07
2023-03-19T03:32:34.480Z,74.02
2023-03-19T03:35:08.317Z,74.04
2023-03-19T03:37:41.073Z,74.16
2023-03-19T03:40:14.435Z,74.10
2023-03-19T03:42:48.539Z,74.08
2023-03-19T03:45:21.256Z,74.06
2023-03-19T03:47:53.982Z,73.92
2023-03-19T03:50:26.682Z,74.26
2023-03-19T03:52:59.372Z,73.98
2023-03-19T03:55:32.128Z,74.03
2023-03-19T03:58:06.805Z,73.78
2023-03-19T04:00:39.588Z,74.25
2023-03-19T04:03:12.861Z,74.10
2023-03-19T04:05:45.859Z,73.94
2023-03-19T04:08:18.902Z,73.97
2023-03-19T04:10:51.820Z,74.18
2023-03-19T04:13:26.521Z,74.40
2023-03-19T04:15:59.288Z,74.17
2023-03-19T04:18:32.034Z,73.91
2023-03-19T04:21:04.969Z,74.02
2023-03-19T04:23:37.731Z,74.08
2023-03-19T04:26:12.423Z,74.13
2023-03-19T04:28:46.566Z,74.19
2023-03-19T04:31:19.357Z,74.24
2023-03-19T04:33:52.541Z,74.58
2023-03-19T04:36:25.426Z,74.31
2023-03-19T04:38:58.161Z,74.00
2023-03-19T04:41:30.954Z,75.09
2023-03-19T04:44:05.065Z,74.51
2023-03-19T04:46:37.802Z,74.31
2023-03-19T04:49:10.827Z,74.32
2023-03-19T04:51:43.587Z,74.14
2023-03-19T04:54:16.611Z,74.36
2023-03-19T04:56:49.282Z,73.96
2023-03-19T04:59:23.544Z,74.52
2023-03-19T05:01:56.803Z,74.41
2023-03-19T05:04:29.490Z,74.20
2023-03-19T05:07:02.239Z,74.55
2023-03-19T05:09:34.961Z,74.96
2023-03-19T05:12:08.560Z,74.58
2023-03-19T05:14:43.005Z,74.83
2023-03-19T05:17:15.754Z,74.36
2023-03-19T05:19:48.716Z,74.63
2023-03-19T05:22:21.579Z,74.72
2023-03-19T05:24:54.313Z,74.27
2023-03-19T05:27:27.446Z,74.33
2023-03-19T05:30:01.679Z,74.60
2023-03-19T05:32:34.533Z,74.38
2023-03-19T05:35:07.662Z,74.92
2023-03-19T05:37:40.747Z,74.84
2023-03-19T05:40:13.743Z,74.86
2023-03-19T05:42:46.565Z,74.99
2023-03-19T05:45:20.799Z,75.13
2023-03-19T05:47:53.836Z,75.08
2023-03-19T05:50:26.632Z,74.79
2023-03-19T05:52:59.400Z,74.99
2023-03-19T05:55:32.134Z,75.20
2023-03-19T05:58:05.882Z,74.84
2023-03-19T06:00:40.069Z,75.02
2023-03-19T06:03:13.062Z,74.84
2023-03-19T06:05:45.814Z,75.21
2023-03-19T06:08:18.899Z,75.08
2023-03-19T06:10:51.877Z,75.27
2023-03-19T06:13:24.570Z,75.39
2023-03-19T06:15:58.731Z,75.32
2023-03-19T06:18:32.107Z,75.24
2023-03-19T06:21:05.191Z,75.37
2023-03-19T06:23:37.811Z,74.85
2023-03-19T06:26:10.535Z,74.84
2023-03-19T06:28:43.264Z,75.14
2023-03-19T06:31:17.714Z,74.83
2023-03-19T06:33:50.451Z,75.18
2023-03-19T06:36:23.182Z,74.91
2023-03-19T06:38:56.181Z,75.04
2023-03-19T06:41:28.949Z,75.31
2023-03-19T06:44:01.673Z,75.34
2023-03-19T06:46:36.103Z,75.45
2023-03-19T06:49:08.880Z,75.54
2023-03-19T06:51:41.673Z,75.63
2023-03-19T06:54:14.419Z,75.84
2023-03-19T06:56:47.818Z,75.46
2023-03-19T06:59:20.616Z,76.17
2023-03-19T07:01:54.708Z,76.23
2023-03-19T07:04:27.485Z,76.20
2023-03-19T07:07:02.534Z,76.11
2023-03-19T07:09:35.223Z,76.13
2023-03-19T07:12:08.309Z,76.43
2023-03-19T07:14:41.071Z,76.38
2023-03-19T07:17:15.500Z,76.82
2023-03-19T07:19:48.229Z,77.07
2023-03-19T07:22:21.892Z,77.03
2023-03-19T07:24:54.576Z,77.10
2023-03-19T07:27:27.634Z,77.34
2023-03-19T07:30:00.319Z,77.36
2023-03-19T07:32:34.509Z,77.38
2023-03-19T07:35:07.838Z,77.62
2023-03-19T07:37:40.831Z,78.16
2023-03-19T07:40:13.861Z,77.91
2023-03-19T07:42:46.805Z,78.54
2023-03-19T07:45:19.640Z,78.25
2023-03-19T07:47:53.721Z,78.09
2023-03-19T07:50:26.675Z,78.06
2023-03-19T07:52:59.566Z,78.02
2023-03-19T07:55:32.317Z,78.25
2023-03-19T07:58:05.054Z,78.37
2023-03-19T08:00:37.764Z,78.60
2023-03-19T08:03:12.206Z,78.25
2023-03-19T08:05:44.942Z,78.47
2023-03-19T08:08:17.750Z,78.95
2023-03-19T08:10:50.994Z,78.74
2023-03-19T08:13:23.823Z,79.54
2023-03-19T08:15:56.572Z,79.26
2023-03-19T08:18:30.739Z,80.02
2023-03-19T08:21:03.958Z,79.80
2023-03-19T08:23:36.673Z,79.62
2023-03-19T08:26:09.436Z,79.40
2023-03-19T08:28:42.217Z,78.79
2023-03-19T08:31:15.277Z,78.40
2023-03-19T08:33:49.377Z,78.42
2023-03-19T08:36:22.190Z,77.91
2023-03-19T08:38:55.098Z,78.48
2023-03-19T08:41:27.764Z,77.99
2023-03-19T08:44:00.790Z,78.60
2023-03-19T08:46:34.147Z,77.47
2023-03-19T08:49:08.329Z,77.28
2023-03-19T08:51:40.955Z,78.03
2023-03-19T08:54:13.890Z,77.53
2023-03-19T08:56:46.769Z,76.92
2023-03-19T08:59:19.843Z,77.39
2023-03-19T09:01:53.364Z,78.12
2023-03-19T09:04:28.190Z,77.33
2023-03-19T09:07:01.123Z,77.91
2023-03-19T09:09:34.494Z,77.84
2023-03-19T09:12:08.064Z,77.59
2023-03-19T09:14:41.160Z,77.77
2023-03-19T09:17:15.623Z,79.77
2023-03-19T09:19:49.831Z,78.23
2023-03-19T09:22:22.577Z,78.11
2023-03-19T09:24:55.718Z,78.71
2023-03-19T09:27:28.692Z,78.40
2023-03-19T09:30:01.493Z,80.05
2023-03-19T09:32:34.245Z,79.03
2023-03-19T09:35:09.222Z,80.32
2023-03-19T09:37:41.946Z,78.51
2023-03-19T09:40:22.345Z,80.04
2023-03-19T09:43:00.695Z,78.15
2023-03-19T09:45:33.767Z,76.21
2023-03-19T09:48:09.023Z,77.21
2023-03-19T09:50:43.606Z,77.15
2023-03-19T09:53:19.228Z,76.79
2023-03-19T09:55:54.209Z,75.50
2023-03-19T09:58:29.277Z,71.45
2023-03-19T10:01:02.194Z,73.14
2023-03-19T10:03:44.436Z,69.67
2023-03-19T10:06:26.731Z,67.93
2023-03-19T10:09:05.881Z,71.47
2023-03-19T10:11:46.648Z,74.16
2023-03-19T10:14:33.441Z,75.19
2023-03-19T10:17:07.778Z,73.22
2023-03-19T10:19:43.108Z,73.94
2023-03-19T10:22:20.590Z,72.25
2023-03-19T10:24:55.421Z,72.85
2023-03-19T10:27:29.800Z,74.74
2023-03-19T10:30:02.596Z,64.86
2023-03-19T10:32:39.644Z,61.34
2023-03-19T10:35:19.297Z,68.29
2023-03-19T10:37:55.314Z,67.99
2023-03-19T10:40:31.257Z,70.15
2023-03-19T10:43:07.703Z,65.29
2023-03-19T10:45:40.901Z,65.03
2023-03-19T10:48:14.725Z,66.33
2023-03-19T10:50:50.506Z,66.90
2023-03-19T10:53:30.061Z,66.25
2023-03-19T10:56:03.880Z,67.68
2023-03-19T10:58:37.990Z,67.78
2023-03-19T11:01:12.118Z,68.70
2023-03-19T11:03:51.916Z,68.62
2023-03-19T11:06:26.495Z,64.84
2023-03-19T11:09:02.280Z,67.98
2023-03-19T11:11:36.755Z,68.13
2023-03-19T11:14:11.045Z,69.44
2023-03-19T11:16:57.383Z,67.39
2023-03-19T11:19:31.032Z,68.13
2023-03-19T11:22:09.860Z,65.25
2023-03-19T11:24:49.970Z,69.21
2023-03-19T11:27:29.799Z,69.60
2023-03-19T11:30:02.654Z,68.03
2023-03-19T11:32:53.579Z,69.18
2023-03-19T11:35:28.901Z,70.76
2023-03-19T11:38:02.782Z,72.49
2023-03-19T11:40:44.771Z,71.47
2023-03-19T11:43:29.862Z,72.26
2023-03-19T11:46:08.136Z,67.33
2023-03-19T11:48:47.714Z,71.09
2023-03-19T11:51:23.665Z,68.00
2023-03-19T11:54:00.819Z,67.59
2023-03-19T11:56:41.025Z,67.69
2023-03-19T11:59:25.809Z,69.47
2023-03-19T12:02:10.410Z,70.67
2023-03-19T12:04:49.658Z,70.84
2023-03-19T12:07:26.845Z,71.52
2023-03-19T12:10:04.431Z,73.08
2023-03-19T12:12:42.407Z,73.23
2023-03-19T12:15:19.789Z,73.68
2023-03-19T12:18:00.011Z,74.69
2023-03-19T12:20:36.209Z,74.95
2023-03-19T12:23:14.207Z,74.57
2023-03-19T12:26:04.706Z,73.83
2023-03-19T12:28:43.200Z,72.59
2023-03-19T12:31:28.446Z,72.57
2023-03-19T12:34:07.429Z,72.81
2023-03-19T12:36:42.940Z,70.93
2023-03-19T12:39:20.237Z,70.96
2023-03-19T12:41:53.568Z,71.46
2023-03-19T12:44:31.809Z,72.10
2023-03-19T12:47:07.370Z,71.05
2023-03-19T12:49:43.283Z,66.47
2023-03-19T12:52:19.851Z,68.63
2023-03-19T12:54:57.214Z,68.95
2023-03-19T12:57:33.383Z,70.48
2023-03-19T13:00:12.508Z,68.88
2023-03-19T13:02:49.204Z,72.94
2023-03-19T13:05:26.318Z,69.69
2023-03-19T13:08:03.111Z,73.59
2023-03-19T13:10:36.398Z,74.38
2023-03-19T13:13:16.398Z,67.88
2023-03-19T13:15:54.233Z,71.33
2023-03-19T13:18:34.404Z,72.30
2023-03-19T13:21:22.555Z,70.74
2023-03-19T13:24:04.069Z,72.14
2023-03-19T13:26:37.624Z,72.00
2023-03-19T13:29:17.132Z,75.05
2023-03-19T13:31:52.084Z,75.47
2023-03-19T13:34:28.778Z,73.04
2023-03-19T13:37:03.009Z,70.12
2023-03-19T13:39:36.566Z,70.94
2023-03-19T13:42:35.981Z,69.93
2023-03-19T13:45:23.527Z,72.10
2023-03-19T13:47:58.719Z,65.00
2023-03-19T13:50:33.525Z,69.62
2023-03-19T13:53:15.011Z,70.51
2023-03-19T13:55:51.437Z,66.63
2023-03-19T13:58:43.507Z,67.01
2023-03-19T14:01:34.851Z,62.98
2023-03-19T14:04:16.893Z,62.17
2023-03-19T14:06:50.275Z,62.33
2023-03-19T14:09:31.583Z,65.35
2023-03-19T14:12:21.925Z,67.29
2023-03-19T14:14:57.172Z,65.52
2023-03-19T14:17:32.689Z,65.64
2023-03-19T14:20:28.022Z,65.11
2023-03-19T14:23:23.471Z,64.93
2023-03-19T14:26:01.361Z,66.99
2023-03-19T14:28:36.783Z,69.98
2023-03-19T14:31:19.516Z,69.11
2023-03-19T14:33:55.246Z,69.27
2023-03-19T14:36:29.855Z,70.38
2023-03-19T14:39:05.140Z,70.99
2023-03-19T14:41:43.346Z,69.16
2023-03-19T14:44:30.868Z,69.77
2023-03-19T14:47:12.412Z,67.99
2023-03-19T14:49:52.743Z,66.80
2023-03-19T14:52:28.121Z,68.00
2023-03-19T14:55:01.629Z,68.29
2023-03-19T14:57:35.883Z,67.90
2023-03-19T15:00:15.103Z,70.21
2023-03-19T15:02:48.805Z,70.92
2023-03-19T15:05:23.932Z,69.89
2023-03-19T15:07:59.444Z,69.93
2023-03-19T15:10:36.907Z,68.81
2023-03-19T15:13:19.633Z,70.02
2023-03-19T15:16:10.466Z,69.68
2023-03-19T15:18:43.616Z,70.27
2023-03-19T15:21:16.606Z,69.50
2023-03-19T15:23:50.837Z,70.75
2023-03-19T15:26:33.979Z,69.25
2023-03-19T15:29:11.685Z,68.63
2023-03-19T15:31:52.873Z,69.34
2023-03-19T15:34:30.436Z,68.94
2023-03-19T15:37:05.721Z,69.25
2023-03-19T15:39:42.721Z,69.42
2023-03-19T15:42:17.231Z,69.98
2023-03-19T15:44:51.210Z,70.53
2023-03-19T15:47:25.971Z,69.35
2023-03-19T15:50:00.019Z,69.88
2023-03-19T15:52:33.373Z,70.30
2023-03-19T15:55:08.711Z,70.37
2023-03-19T15:57:42.306Z,70.70
2023-03-19T16:00:15.929Z,70.96
2023-03-19T16:02:50.215Z,71.40
2023-03-19T16:05:26.456Z,70.10
2023-03-19T16:08:00.546Z,70.22
2023-03-19T16:10:39.766Z,70.64
2023-03-19T16:13:24.421Z,70.25
2023-03-19T16:16:01.659Z,70.33
2023-03-19T16:18:42.611Z,70.43
2023-03-19T16:21:17.921Z,70.51
2023-03-19T16:23:59.351Z,71.30
2023-03-19T16:26:39.478Z,71.41
2023-03-19T16:29:20.655Z,71.66
2023-03-19T16:31:54.074Z,71.89
2023-03-19T16:34:32.268Z,72.04
2023-03-19T16:37:19.982Z,72.50
2023-03-19T16:39:55.261Z,72.10
2023-03-19T16:42:38.102Z,72.58
2023-03-19T16:45:21.507Z,73.36
2023-03-19T16:47:55.144Z,72.87
2023-03-19T16:50:30.433Z,73.06
2023-03-19T16:53:05.165Z,73.23
2023-03-19T16:55:38.477Z,73.03
2023-03-19T16:58:16.104Z,73.86
2023-03-19T17:00:48.897Z,73.39
2023-03-19T17:03:22.210Z,73.07
2023-03-19T17:05:55.054Z,73.71
2023-03-19T17:08:27.826Z,73.47
2023-03-19T17:11:00.611Z,73.50
2023-03-19T17:13:37.594Z,73.99
2023-03-19T17:16:10.727Z,73.44
2023-03-19T17:18:45.011Z,73.75
2023-03-19T17:21:19.451Z,73.87
2023-03-19T17:23:52.283Z,73.86
2023-03-19T17:26:27.277Z,74.17
2023-03-19T17:29:01.352Z,73.99
2023-03-19T17:31:34.448Z,73.91
2023-03-19T17:34:10.653Z,73.73
2023-03-19T17:36:44.211Z,73.81
2023-03-19T17:39:17.160Z,73.88
2023-03-19T17:41:50.057Z,73.65
2023-03-19T17:44:24.275Z,73.76
2023-03-19T17:46:57.202Z,73.05
2023-03-19T17:49:32.274Z,72.96
2023-03-19T17:52:05.155Z,73.22
2023-03-19T17:54:38.038Z,73.02
2023-03-19T17:57:13.049Z,72.53
2023-03-19T17:59:47.117Z,72.69
2023-03-19T18:02:28.000Z,72.24
2023-03-19T18:05:02.245Z,72.32
2023-03-19T18:07:35.024Z,72.18
2023-03-19T18:10:08.262Z,72.14
2023-03-19T18:12:40.963Z,72.33
2023-03-19T18:15:15.353Z,72.35
2023-03-19T18:17:49.591Z,72.40
2023-03-19T18:20:23.912Z,72.01
2023-03-19T18:22:56.540Z,72.24
2023-03-19T18:25:32.113Z,71.99
2023-03-19T18:28:05.603Z,72.08
2023-03-19T18:30:41.415Z,72.17
2023-03-19T18:33:16.470Z,72.35
2023-03-19T18:35:49.304Z,72.49
2023-03-19T18:38:23.345Z,72.46
2023-03-19T18:40:56.586Z,72.31
2023-03-19T18:43:29.648Z,72.51
2023-03-19T18:46:04.287Z,72.89
2023-03-19T18:48:37.038Z,73.54
2023-03-19T18:51:11.311Z,73.75
2023-03-19T18:53:44.179Z,73.87
2023-03-19T18:56:21.517Z,73.36
2023-03-19T18:58:54.910Z,73.90
2023-03-19T19:01:29.552Z,73.75
2023-03-19T19:04:02.338Z,74.21
2023-03-19T19:06:46.930Z,73.83
2023-03-19T19:09:21.062Z,73.96
2023-03-19T19:11:54.488Z,74.12
2023-03-19T19:14:27.192Z,74.40
2023-03-19T19:17:01.314Z,73.91
2023-03-19T19:19:34.959Z,73.81
2023-03-19T19:22:07.727Z,74.21
2023-03-19T19:24:40.436Z,73.57
2023-03-19T19:27:16.626Z,74.09
2023-03-19T19:29:50.218Z,73.94
2023-03-19T19:32:25.810Z,73.50
2023-03-19T19:34:58.509Z,73.46
2023-03-19T19:37:31.320Z,73.19
2023-03-19T19:40:04.178Z,73.11
2023-03-19T19:42:37.123Z,73.42
2023-03-19T19:45:18.457Z,73.56
2023-03-19T19:47:52.930Z,74.09
2023-03-19T19:50:27.637Z,74.50
2023-03-19T19:53:00.569Z,74.34
2023-03-19T19:55:33.879Z,74.77
2023-03-19T19:58:08.650Z,74.28
2023-03-19T20:00:45.627Z,74.94
2023-03-19T20:03:25.258Z,74.87
2023-03-19T20:05:58.277Z,74.78
2023-03-19T20:08:31.303Z,75.07
2023-03-19T20:11:04.117Z,74.92
2023-03-19T20:13:37.802Z,75.04
2023-03-19T20:16:11.559Z,75.36
2023-03-19T20:18:46.120Z,75.27
2023-03-19T20:21:18.754Z,75.03
2023-03-19T20:23:55.311Z,75.11
2023-03-19T20:26:30.787Z,74.82
2023-03-19T20:29:03.903Z,74.91
2023-03-19T20:31:37.543Z,75.15
2023-03-19T20:34:22.583Z,74.73
2023-03-19T20:37:01.806Z,75.22
2023-03-19T20:39:34.616Z,74.73
2023-03-19T20:42:09.732Z,74.87
2023-03-19T20:44:43.162Z,74.51
2023-03-19T20:47:17.643Z,74.14
2023-03-19T20:49:53.428Z,74.03
2023-03-19T20:52:26.178Z,73.71
2023-03-19T20:54:59.332Z,73.70
2023-03-19T20:57:32.088Z,73.80
2023-03-19T21:00:17.869Z,73.95
2023-03-19T21:02:51.470Z,73.82
2023-03-19T21:05:27.004Z,74.36
2023-03-19T21:07:59.754Z,74.26
2023-03-19T21:10:33.682Z,74.53
2023-03-19T21:13:07.244Z,75.32
2023-03-19T21:15:40.162Z,75.14
2023-03-19T21:18:13.347Z,75.03
2023-03-19T21:20:49.668Z,74.73
2023-03-19T21:23:25.765Z,73.89
2023-03-19T21:25:58.826Z,73.72
2023-03-19T21:28:35.624Z,73.64
2023-03-19T21:31:10.231Z,73.57
2023-03-19T21:33:43.520Z,72.88
2023-03-19T21:36:17.999Z,73.21
2023-03-19T21:38:51.770Z,72.38
2023-03-19T21:41:26.331Z,72.32
2023-03-19T21:44:02.004Z,72.42
2023-03-19T21:46:35.032Z,72.32
2023-03-19T21:49:09.542Z,72.25
2023-03-19T21:51:44.053Z,71.51
2023-03-19T21:54:16.768Z,71.58
2023-03-19T21:56:49.613Z,71.57
2023-03-19T21:59:23.738Z,71.93
2023-03-19T22:01:56.515Z,71.45
2023-03-19T22:04:29.164Z,71.60
2023-03-19T22:07:03.604Z,71.44
2023-03-19T22:09:37.388Z,71.93
2023-03-19T22:12:18.299Z,71.80
2023-03-19T22:14:52.285Z,71.91
2023-03-19T22:17:26.658Z,72.13
2023-03-19T22:19:59.399Z,72.30
2023-03-19T22:22:34.104Z,72.11
2023-03-19T22:25:07.447Z,72.16
2023-03-19T22:27:40.753Z,71.90
2023-03-19T22:30:21.753Z,71.92
2023-03-19T22:32:56.213Z,72.19
2023-03-19T22:35:28.929Z,72.54
2023-03-19T22:38:03.047Z,72.45
2023-03-19T22:40:35.963Z,72.21
2023-03-19T22:43:15.553Z,72.43
2023-03-19T22:45:51.960Z,72.52
2023-03-19T22:48:24.785Z,72.71
2023-03-19T22:50:57.498Z,73.41
2023-03-19T22:53:33.051Z,73.67
2023-03-19T22:56:06.128Z,74.26
2023-03-19T22:58:39.024Z,74.21
2023-03-19T23:01:29.182Z,75.26
2023-03-19T23:04:15.323Z,75.64
2023-03-19T23:06:48.181Z,75.90
2023-03-19T23:09:24.146Z,76.12
2023-03-19T23:11:57.941Z,75.70
2023-03-19T23:14:31.404Z,76.15
2023-03-19T23:17:09.246Z,76.91
2023-03-19T23:19:41.995Z,76.38
2023-03-19T23:22:16.059Z,77.08
2023-03-19T23:24:50.283Z,77.02
2023-03-19T23:27:24.641Z,76.93
2023-03-19T23:29:57.589Z,76.96
2023-03-19T23:32:30.259Z,76.69
2023-03-19T23:35:02.936Z,76.41
2023-03-19T23:37:35.666Z,76.91
2023-03-19T23:40:11.732Z,76.72
2023-03-19T23:42:46.350Z,76.38
2023-03-19T23:45:29.071Z,76.33
2023-03-19T23:48:03.258Z,76.51
2023-03-19T23:50:36.768Z,75.61
2023-03-19T23:53:18.693Z,75.64
2023-03-19T23:55:55.612Z,76.20
2023-03-19T23:58:31.250Z,76.29
